sensor_id;sensor_type;location;lat;lon;timestamp;temperature;humidity
12845;DHT22;6489;48.508;9.206;2022-10-04T00:00:29;7.10;99.90
12845;DHT22;6489;48.508;9.206;2022-10-04T00:11:05;7.10;1.00
12845;DHT22;6489;48.508;9.206;2022-10-04T00:14:32;7.60;99.90
12845;DHT22;6489;48.508;9.206;2022-10-04T00:18:02;7.80;1.00
12845;DHT22;6489;48.508;9.206;2022-10-04T00:28:55;7.30;99.90
12845;DHT22;6489;48.508;9.206;2022-10-04T00:32:27;6.90;1.00
12845;DHT22;6489;48.508;9.206;2022-10-04T00:35:49;6.80;99.90
12845;DHT22;6489;48.508;9.206;2022-10-04T00:46:06;6.50;99.90
12845;DHT22;6489;48.508;9.206;2022-10-04T00:49:35;6.60;1.00
12845;DHT22;6489;48.508;9.206;2022-10-04T00:53:02;6.40;99.90
12845;DHT22;6489;48.508;9.206;2022-10-04T00:56:29;6.30;99.90
12845;DHT22;6489;48.508;9.206;2022-10-04T00:59:55;6.20;99.90
12845;DHT22;6489;48.508;9.206;2022-10-04T01:03:25;6.40;1.00
12845;DHT22;6489;48.508;9.206;2022-10-04T01:06:49;6.20;1.00
12845;DHT22;6489;48.508;9.206;2022-10-04T01:10:16;6.00;99.90
12845;DHT22;6489;48.508;9.206;2022-10-04T01:13:43;6.20;1.00
12845;DHT22;6489;48.508;9.206;2022-10-04T01:20:33;6.10;1.00
12845;DHT22;6489;48.508;9.206;2022-10-04T01:24:20;6.10;1.00
12845;DHT22;6489;48.508;9.206;2022-10-04T01:31:05;6.10;99.90
12845;DHT22;6489;48.508;9.206;2022-10-04T01:34:29;6.10;1.00
12845;DHT22;6489;48.508;9.206;2022-10-04T01:37:52;6.20;1.00
12845;DHT22;6489;48.508;9.206;2022-10-04T01:51:34;6.30;1.00
12845;DHT22;6489;48.508;9.206;2022-10-04T01:55:01;6.20;1.00
12845;DHT22;6489;48.508;9.206;2022-10-04T01:58:28;6.10;1.00
12845;DHT22;6489;48.508;9.206;2022-10-04T02:01:55;5.90;99.90
12845;DHT22;6489;48.508;9.206;2022-10-04T02:12:09;5.60;99.90
12845;DHT22;6489;48.508;9.206;2022-10-04T02:15:34;5.80;1.00
12845;DHT22;6489;48.508;9.206;2022-10-04T02:18:59;6.00;99.90
12845;DHT22;6489;48.508;9.206;2022-10-04T02:22:24;5.70;99.90
12845;DHT22;6489;48.508;9.206;2022-10-04T02:29:08;5.50;99.90
12845;DHT22;6489;48.508;9.206;2022-10-04T02:32:32;5.80;1.00
12845;DHT22;6489;48.508;9.206;2022-10-04T02:43:01;5.70;1.00
12845;DHT22;6489;48.508;9.206;2022-10-04T02:46:27;5.70;1.00
12845;DHT22;6489;48.508;9.206;2022-10-04T02:53:18;5.80;1.00
12845;DHT22;6489;48.508;9.206;2022-10-04T03:00:16;5.80;1.00
12845;DHT22;6489;48.508;9.206;2022-10-04T03:03:39;5.50;1.00
12845;DHT22;6489;48.508;9.206;2022-10-04T03:07:07;5.80;99.90
12845;DHT22;6489;48.508;9.206;2022-10-04T03:10:29;6.00;1.00
12845;DHT22;6489;48.508;9.206;2022-10-04T03:13:54;5.70;1.00
12845;DHT22;6489;48.508;9.206;2022-10-04T03:17:16;6.00;1.00
12845;DHT22;6489;48.508;9.206;2022-10-04T03:20:39;5.70;1.00
12845;DHT22;6489;48.508;9.206;2022-10-04T03:24:04;5.80;1.00
12845;DHT22;6489;48.508;9.206;2022-10-04T03:27:30;5.80;1.00
12845;DHT22;6489;48.508;9.206;2022-10-04T03:30:53;5.90;1.00
12845;DHT22;6489;48.508;9.206;2022-10-04T03:34:19;5.70;1.00
12845;DHT22;6489;48.508;9.206;2022-10-04T03:37:42;5.80;99.90
12845;DHT22;6489;48.508;9.206;2022-10-04T03:41:08;5.80;1.00
12845;DHT22;6489;48.508;9.206;2022-10-04T03:51:19;5.60;1.00
12845;DHT22;6489;48.508;9.206;2022-10-04T03:54:42;5.80;1.00
12845;DHT22;6489;48.508;9.206;2022-10-04T04:01:35;6.00;1.00
12845;DHT22;6489;48.508;9.206;2022-10-04T04:05:05;5.70;1.00
12845;DHT22;6489;48.508;9.206;2022-10-04T04:08:32;5.70;1.00
12845;DHT22;6489;48.508;9.206;2022-10-04T04:11:56;5.80;1.00
12845;DHT22;6489;48.508;9.206;2022-10-04T04:15:19;5.70;1.00
12845;DHT22;6489;48.508;9.206;2022-10-04T04:18:43;5.60;1.00
12845;DHT22;6489;48.508;9.206;2022-10-04T04:25:31;5.90;1.00
12845;DHT22;6489;48.508;9.206;2022-10-04T04:28:57;4.90;21.40
12845;DHT22;6489;48.508;9.206;2022-10-04T04:35:53;5.20;1.00
12845;DHT22;6489;48.508;9.206;2022-10-04T04:42:57;5.40;1.00
12845;DHT22;6489;48.508;9.206;2022-10-04T04:46:20;5.20;1.00
12845;DHT22;6489;48.508;9.206;2022-10-04T04:53:09;5.50;1.00
12845;DHT22;6489;48.508;9.206;2022-10-04T04:56:33;5.60;1.00
12845;DHT22;6489;48.508;9.206;2022-10-04T04:59:57;5.50;1.00
12845;DHT22;6489;48.508;9.206;2022-10-04T05:03:21;5.90;1.00
12845;DHT22;6489;48.508;9.206;2022-10-04T05:10:19;5.50;1.00
12845;DHT22;6489;48.508;9.206;2022-10-04T05:17:05;4.90;1.00
12845;DHT22;6489;48.508;9.206;2022-10-04T05:20:29;5.10;1.00
12845;DHT22;6489;48.508;9.206;2022-10-04T05:23:57;5.10;1.00
12845;DHT22;6489;48.508;9.206;2022-10-04T05:27:25;5.30;1.00
12845;DHT22;6489;48.508;9.206;2022-10-04T05:31:09;5.40;1.00
12845;DHT22;6489;48.508;9.206;2022-10-04T05:34:37;5.50;1.00
12845;DHT22;6489;48.508;9.206;2022-10-04T05:38:05;5.90;1.00
12845;DHT22;6489;48.508;9.206;2022-10-04T05:41:35;5.50;1.00
12845;DHT22;6489;48.508;9.206;2022-10-04T05:44:59;5.50;1.00
12845;DHT22;6489;48.508;9.206;2022-10-04T05:48:21;6.00;1.00
12845;DHT22;6489;48.508;9.206;2022-10-04T05:51:48;5.80;1.00
12845;DHT22;6489;48.508;9.206;2022-10-04T05:55:24;5.80;1.00
12845;DHT22;6489;48.508;9.206;2022-10-04T05:58:58;5.80;1.00
12845;DHT22;6489;48.508;9.206;2022-10-04T06:05:54;5.80;1.00
12845;DHT22;6489;48.508;9.206;2022-10-04T06:12:52;6.00;1.00
12845;DHT22;6489;48.508;9.206;2022-10-04T06:16:22;6.20;1.00
12845;DHT22;6489;48.508;9.206;2022-10-04T06:23:22;6.00;99.90
12845;DHT22;6489;48.508;9.206;2022-10-04T06:26:49;6.30;1.00
12845;DHT22;6489;48.508;9.206;2022-10-04T06:37:34;5.80;1.00
12845;DHT22;6489;48.508;9.206;2022-10-04T06:48:56;6.30;8.60
12845;DHT22;6489;48.508;9.206;2022-10-04T06:52:36;6.40;10.20
12845;DHT22;6489;48.508;9.206;2022-10-04T06:56:13;6.60;11.70
12845;DHT22;6489;48.508;9.206;2022-10-04T07:03:28;7.30;1.00
12845;DHT22;6489;48.508;9.206;2022-10-04T07:07:04;7.50;99.90
12845;DHT22;6489;48.508;9.206;2022-10-04T07:17:38;7.50;99.90
12845;DHT22;6489;48.508;9.206;2022-10-04T07:24:37;7.70;1.00
12845;DHT22;6489;48.508;9.206;2022-10-04T07:28:03;7.60;99.90
12845;DHT22;6489;48.508;9.206;2022-10-04T07:31:52;7.80;1.00
12845;DHT22;6489;48.508;9.206;2022-10-04T07:35:28;7.80;1.00
12845;DHT22;6489;48.508;9.206;2022-10-04T07:38:57;7.70;99.90
12845;DHT22;6489;48.508;9.206;2022-10-04T07:42:27;8.00;1.00
12845;DHT22;6489;48.508;9.206;2022-10-04T07:45:50;8.10;99.90
12845;DHT22;6489;48.508;9.206;2022-10-04T07:49:16;8.30;99.90
12845;DHT22;6489;48.508;9.206;2022-10-04T07:52:49;8.40;1.00
12845;DHT22;6489;48.508;9.206;2022-10-04T07:56:15;8.40;99.90
12845;DHT22;6489;48.508;9.206;2022-10-04T08:03:30;8.90;1.00
12845;DHT22;6489;48.508;9.206;2022-10-04T08:06:58;8.60;99.90
12845;DHT22;6489;48.508;9.206;2022-10-04T08:10:27;9.00;1.00
12845;DHT22;6489;48.508;9.206;2022-10-04T08:13:57;9.40;99.90
12845;DHT22;6489;48.508;9.206;2022-10-04T08:17:44;9.30;1.00
12845;DHT22;6489;48.508;9.206;2022-10-04T08:21:09;9.30;99.90
12845;DHT22;6489;48.508;9.206;2022-10-04T08:24:40;9.40;1.00
12845;DHT22;6489;48.508;9.206;2022-10-04T08:28:19;9.40;1.00
12845;DHT22;6489;48.508;9.206;2022-10-04T08:32:06;9.50;1.00
12845;DHT22;6489;48.508;9.206;2022-10-04T08:35:37;9.50;1.00
12845;DHT22;6489;48.508;9.206;2022-10-04T08:38:59;9.00;99.90
12845;DHT22;6489;48.508;9.206;2022-10-04T08:42:53;10.00;1.00
12845;DHT22;6489;48.508;9.206;2022-10-04T08:51:01;10.70;1.00
12845;DHT22;6489;48.508;9.206;2022-10-04T08:59:07;11.20;1.00
12845;DHT22;6489;48.508;9.206;2022-10-04T09:03:00;11.30;1.00
12845;DHT22;6489;48.508;9.206;2022-10-04T09:06:37;11.60;1.00
12845;DHT22;6489;48.508;9.206;2022-10-04T09:10:14;11.80;99.90
12845;DHT22;6489;48.508;9.206;2022-10-04T09:13:53;12.10;1.00
12845;DHT22;6489;48.508;9.206;2022-10-04T09:17:21;12.50;1.00
12845;DHT22;6489;48.508;9.206;2022-10-04T09:20:53;13.00;1.00
12845;DHT22;6489;48.508;9.206;2022-10-04T09:24:45;13.70;1.00
12845;DHT22;6489;48.508;9.206;2022-10-04T09:28:38;14.00;1.00
12845;DHT22;6489;48.508;9.206;2022-10-04T09:36:28;13.80;1.00
12845;DHT22;6489;48.508;9.206;2022-10-04T09:44:30;14.10;1.00
12845;DHT22;6489;48.508;9.206;2022-10-04T09:48:24;14.10;1.00
12845;DHT22;6489;48.508;9.206;2022-10-04T09:52:20;14.90;1.00
12845;DHT22;6489;48.508;9.206;2022-10-04T10:03:56;15.30;1.00
12845;DHT22;6489;48.508;9.206;2022-10-04T10:07:35;14.80;1.00
12845;DHT22;6489;48.508;9.206;2022-10-04T10:15:11;14.90;1.00
12845;DHT22;6489;48.508;9.206;2022-10-04T10:22:22;15.70;1.00
12845;DHT22;6489;48.508;9.206;2022-10-04T10:33:37;16.10;1.00
12845;DHT22;6489;48.508;9.206;2022-10-04T10:37:06;16.60;1.00
12845;DHT22;6489;48.508;9.206;2022-10-04T10:40:39;16.50;1.00
12845;DHT22;6489;48.508;9.206;2022-10-04T10:44:12;16.80;1.00
12845;DHT22;6489;48.508;9.206;2022-10-04T10:51:12;17.40;1.00
12845;DHT22;6489;48.508;9.206;2022-10-04T11:06:54;17.90;1.00
12845;DHT22;6489;48.508;9.206;2022-10-04T11:18:43;17.70;1.00
12845;DHT22;6489;48.508;9.206;2022-10-04T11:22:28;17.50;1.00
12845;DHT22;6489;48.508;9.206;2022-10-04T11:29:41;17.70;1.00
12845;DHT22;6489;48.508;9.206;2022-10-04T11:40:57;18.10;1.00
12845;DHT22;6489;48.508;9.206;2022-10-04T11:44:38;18.10;1.00
12845;DHT22;6489;48.508;9.206;2022-10-04T11:48:14;18.20;1.00
12845;DHT22;6489;48.508;9.206;2022-10-04T11:52:03;18.80;1.00
12845;DHT22;6489;48.508;9.206;2022-10-04T11:59:57;19.00;1.00
12845;DHT22;6489;48.508;9.206;2022-10-04T12:07:02;18.00;1.00
12845;DHT22;6489;48.508;9.206;2022-10-04T12:10:29;18.10;1.00
12845;DHT22;6489;48.508;9.206;2022-10-04T12:29:02;18.10;1.00
12845;DHT22;6489;48.508;9.206;2022-10-04T12:36:02;18.50;1.00
12845;DHT22;6489;48.508;9.206;2022-10-04T12:39:41;18.70;1.00
12845;DHT22;6489;48.508;9.206;2022-10-04T12:46:37;18.30;1.00
12845;DHT22;6489;48.508;9.206;2022-10-04T12:50:10;18.70;1.00
12845;DHT22;6489;48.508;9.206;2022-10-04T12:53:41;18.30;1.00
12845;DHT22;6489;48.508;9.206;2022-10-04T13:00:39;19.40;1.00
12845;DHT22;6489;48.508;9.206;2022-10-04T13:04:19;19.10;1.00
12845;DHT22;6489;48.508;9.206;2022-10-04T13:07:57;19.40;1.00
12845;DHT22;6489;48.508;9.206;2022-10-04T13:18:33;18.90;1.00
12845;DHT22;6489;48.508;9.206;2022-10-04T13:22:18;19.70;1.00
12845;DHT22;6489;48.508;9.206;2022-10-04T13:29:28;20.00;1.00
12845;DHT22;6489;48.508;9.206;2022-10-04T13:32:57;19.30;1.00
12845;DHT22;6489;48.508;9.206;2022-10-04T13:36:25;19.50;1.00
12845;DHT22;6489;48.508;9.206;2022-10-04T13:40:01;19.50;1.00
12845;DHT22;6489;48.508;9.206;2022-10-04T13:47:33;19.70;1.00
12845;DHT22;6489;48.508;9.206;2022-10-04T13:54:34;19.70;1.00
12845;DHT22;6489;48.508;9.206;2022-10-04T14:05:50;19.60;1.00
12845;DHT22;6489;48.508;9.206;2022-10-04T14:09:36;19.60;1.00
12845;DHT22;6489;48.508;9.206;2022-10-04T14:36:25;19.30;1.00
12845;DHT22;6489;48.508;9.206;2022-10-04T15:01:45;19.10;1.00
12845;DHT22;6489;48.508;9.206;2022-10-04T15:13:19;19.00;1.00
12845;DHT22;6489;48.508;9.206;2022-10-04T15:20:19;19.10;1.00
12845;DHT22;6489;48.508;9.206;2022-10-04T15:23:47;19.00;1.00
12845;DHT22;6489;48.508;9.206;2022-10-04T15:31:00;19.00;1.00
12845;DHT22;6489;48.508;9.206;2022-10-04T15:34:30;19.00;1.00
12845;DHT22;6489;48.508;9.206;2022-10-04T15:41:25;18.70;1.00
12845;DHT22;6489;48.508;9.206;2022-10-04T15:45:21;18.80;1.00
12845;DHT22;6489;48.508;9.206;2022-10-04T15:52:51;18.70;1.00
12845;DHT22;6489;48.508;9.206;2022-10-04T15:56:34;18.50;1.00
12845;DHT22;6489;48.508;9.206;2022-10-04T16:00:04;18.50;1.00
12845;DHT22;6489;48.508;9.206;2022-10-04T16:17:42;18.40;1.00
12845;DHT22;6489;48.508;9.206;2022-10-04T16:21:13;18.30;1.00
12845;DHT22;6489;48.508;9.206;2022-10-04T16:24:45;18.20;1.00
12845;DHT22;6489;48.508;9.206;2022-10-04T16:28:20;18.00;1.00
12845;DHT22;6489;48.508;9.206;2022-10-04T16:31:51;18.00;1.00
12845;DHT22;6489;48.508;9.206;2022-10-04T16:35:22;17.90;1.00
12845;DHT22;6489;48.508;9.206;2022-10-04T16:38:53;17.80;1.00
12845;DHT22;6489;48.508;9.206;2022-10-04T16:42:45;17.80;1.00
12845;DHT22;6489;48.508;9.206;2022-10-04T16:46:18;17.60;1.00
12845;DHT22;6489;48.508;9.206;2022-10-04T16:49:48;17.50;1.00
12845;DHT22;6489;48.508;9.206;2022-10-04T16:53:22;17.40;1.00
12845;DHT22;6489;48.508;9.206;2022-10-04T16:57:14;17.20;1.00
12845;DHT22;6489;48.508;9.206;2022-10-04T17:00:37;17.20;56.40
12845;DHT22;6489;48.508;9.206;2022-10-04T17:04:11;16.80;1.00
12845;DHT22;6489;48.508;9.206;2022-10-04T17:07:56;16.60;1.00
12845;DHT22;6489;48.508;9.206;2022-10-04T17:11:42;16.50;1.00
12845;DHT22;6489;48.508;9.206;2022-10-04T17:19:30;16.10;1.00
12845;DHT22;6489;48.508;9.206;2022-10-04T17:23:21;15.90;1.00
12845;DHT22;6489;48.508;9.206;2022-10-04T17:30:24;15.80;1.00
12845;DHT22;6489;48.508;9.206;2022-10-04T17:33:53;16.00;1.00
12845;DHT22;6489;48.508;9.206;2022-10-04T17:37:25;15.80;1.00
12845;DHT22;6489;48.508;9.206;2022-10-04T17:40:55;15.80;1.00
12845;DHT22;6489;48.508;9.206;2022-10-04T17:44:28;15.70;1.00
12845;DHT22;6489;48.508;9.206;2022-10-04T17:47:59;15.60;1.00
12845;DHT22;6489;48.508;9.206;2022-10-04T17:51:42;15.60;1.00
12845;DHT22;6489;48.508;9.206;2022-10-04T17:55:27;15.80;1.00
12845;DHT22;6489;48.508;9.206;2022-10-04T17:58:53;15.90;1.00
12845;DHT22;6489;48.508;9.206;2022-10-04T18:02:19;15.50;1.00
12845;DHT22;6489;48.508;9.206;2022-10-04T18:05:49;15.00;1.00
12845;DHT22;6489;48.508;9.206;2022-10-04T18:09:21;15.40;1.00
12845;DHT22;6489;48.508;9.206;2022-10-04T18:12:50;15.80;1.00
12845;DHT22;6489;48.508;9.206;2022-10-04T18:16:19;15.30;1.00
12845;DHT22;6489;48.508;9.206;2022-10-04T18:23:19;15.00;1.00
12845;DHT22;6489;48.508;9.206;2022-10-04T18:26:53;15.10;1.00
12845;DHT22;6489;48.508;9.206;2022-10-04T18:30:20;15.20;1.00
12845;DHT22;6489;48.508;9.206;2022-10-04T18:33:47;15.10;1.00
12845;DHT22;6489;48.508;9.206;2022-10-04T18:37:18;15.10;1.00
12845;DHT22;6489;48.508;9.206;2022-10-04T18:40:41;15.40;1.00
12845;DHT22;6489;48.508;9.206;2022-10-04T18:44:11;15.10;1.00
12845;DHT22;6489;48.508;9.206;2022-10-04T18:47:36;15.00;1.00
12845;DHT22;6489;48.508;9.206;2022-10-04T18:54:48;15.00;1.00
12845;DHT22;6489;48.508;9.206;2022-10-04T18:58:22;15.00;1.00
12845;DHT22;6489;48.508;9.206;2022-10-04T19:05:38;14.60;26.30
12845;DHT22;6489;48.508;9.206;2022-10-04T19:09:11;15.40;15.00
12845;DHT22;6489;48.508;9.206;2022-10-04T19:12:42;15.10;1.00
12845;DHT22;6489;48.508;9.206;2022-10-04T19:16:25;15.10;1.00
12845;DHT22;6489;48.508;9.206;2022-10-04T19:19:55;15.00;1.00
12845;DHT22;6489;48.508;9.206;2022-10-04T19:23:29;14.80;49.60
12845;DHT22;6489;48.508;9.206;2022-10-04T19:26:58;15.20;19.40
12845;DHT22;6489;48.508;9.206;2022-10-04T19:30:24;14.80;1.00
12845;DHT22;6489;48.508;9.206;2022-10-04T19:33:49;14.40;1.00
12845;DHT22;6489;48.508;9.206;2022-10-04T19:37:17;14.40;93.20
12845;DHT22;6489;48.508;9.206;2022-10-04T19:44:19;14.50;1.00
12845;DHT22;6489;48.508;9.206;2022-10-04T19:47:49;14.40;1.00
12845;DHT22;6489;48.508;9.206;2022-10-04T19:51:17;14.30;1.00
12845;DHT22;6489;48.508;9.206;2022-10-04T19:54:41;14.00;99.90
12845;DHT22;6489;48.508;9.206;2022-10-04T20:08:49;13.90;1.00
12845;DHT22;6489;48.508;9.206;2022-10-04T20:12:29;13.80;1.00
12845;DHT22;6489;48.508;9.206;2022-10-04T20:22:53;13.80;1.00
12845;DHT22;6489;48.508;9.206;2022-10-04T20:26:35;13.80;1.00
12845;DHT22;6489;48.508;9.206;2022-10-04T20:30:12;13.90;99.90
12845;DHT22;6489;48.508;9.206;2022-10-04T20:33:46;13.70;1.00
12845;DHT22;6489;48.508;9.206;2022-10-04T20:37:08;13.80;1.00
12845;DHT22;6489;48.508;9.206;2022-10-04T20:40:43;13.60;1.00
12845;DHT22;6489;48.508;9.206;2022-10-04T20:44:05;13.80;99.90
12845;DHT22;6489;48.508;9.206;2022-10-04T20:47:45;13.50;1.00
12845;DHT22;6489;48.508;9.206;2022-10-04T20:51:09;13.10;99.90
12845;DHT22;6489;48.508;9.206;2022-10-04T20:54:31;13.30;99.90
12845;DHT22;6489;48.508;9.206;2022-10-04T20:57:55;12.80;99.90
12845;DHT22;6489;48.508;9.206;2022-10-04T21:01:21;13.10;1.00
12845;DHT22;6489;48.508;9.206;2022-10-04T21:05:11;12.70;99.90
12845;DHT22;6489;48.508;9.206;2022-10-04T21:08:35;12.70;99.90
12845;DHT22;6489;48.508;9.206;2022-10-04T21:11:58;12.40;99.90
12845;DHT22;6489;48.508;9.206;2022-10-04T21:15:21;12.40;1.00
12845;DHT22;6489;48.508;9.206;2022-10-04T21:18:43;12.80;99.90
12845;DHT22;6489;48.508;9.206;2022-10-04T21:22:07;12.20;1.00
12845;DHT22;6489;48.508;9.206;2022-10-04T21:25:31;12.00;99.90
12845;DHT22;6489;48.508;9.206;2022-10-04T21:28:53;11.80;99.90
12845;DHT22;6489;48.508;9.206;2022-10-04T21:32:16;11.80;99.90
12845;DHT22;6489;48.508;9.206;2022-10-04T21:35:38;11.80;99.90
12845;DHT22;6489;48.508;9.206;2022-10-04T21:39:00;11.30;99.90
12845;DHT22;6489;48.508;9.206;2022-10-04T21:42:23;11.60;99.90
12845;DHT22;6489;48.508;9.206;2022-10-04T21:45:45;11.20;99.90
12845;DHT22;6489;48.508;9.206;2022-10-04T22:02:36;11.50;99.90
12845;DHT22;6489;48.508;9.206;2022-10-04T22:05:58;11.70;99.90
12845;DHT22;6489;48.508;9.206;2022-10-04T22:12:43;11.40;99.90
12845;DHT22;6489;48.508;9.206;2022-10-04T22:19:29;10.70;99.90
12845;DHT22;6489;48.508;9.206;2022-10-04T22:22:51;10.70;1.00
12845;DHT22;6489;48.508;9.206;2022-10-04T22:26:16;10.60;99.90
12845;DHT22;6489;48.508;9.206;2022-10-04T22:29:38;10.50;99.90
12845;DHT22;6489;48.508;9.206;2022-10-04T22:33:01;11.00;99.90
12845;DHT22;6489;48.508;9.206;2022-10-04T22:36:26;10.60;1.00
12845;DHT22;6489;48.508;9.206;2022-10-04T22:39:49;10.90;99.90
12845;DHT22;6489;48.508;9.206;2022-10-04T22:43:13;10.20;1.00
12845;DHT22;6489;48.508;9.206;2022-10-04T22:46:38;10.30;99.90
12845;DHT22;6489;48.508;9.206;2022-10-04T22:50:04;10.30;99.90
12845;DHT22;6489;48.508;9.206;2022-10-04T22:56:57;10.20;99.90
12845;DHT22;6489;48.508;9.206;2022-10-04T23:00:19;10.10;99.90
12845;DHT22;6489;48.508;9.206;2022-10-04T23:03:44;10.30;1.00
12845;DHT22;6489;48.508;9.206;2022-10-04T23:07:08;9.80;99.90
12845;DHT22;6489;48.508;9.206;2022-10-04T23:10:29;9.90;99.90
12845;DHT22;6489;48.508;9.206;2022-10-04T23:20:41;10.30;99.90
12845;DHT22;6489;48.508;9.206;2022-10-04T23:27:35;10.20;99.90
12845;DHT22;6489;48.508;9.206;2022-10-04T23:31:01;10.40;99.90
12845;DHT22;6489;48.508;9.206;2022-10-04T23:34:28;9.30;99.90
12845;DHT22;6489;48.508;9.206;2022-10-04T23:37:51;9.30;99.90
12845;DHT22;6489;48.508;9.206;2022-10-04T23:41:16;9.50;99.90
12845;DHT22;6489;48.508;9.206;2022-10-04T23:44:39;9.90;99.90
12845;DHT22;6489;48.508;9.206;2022-10-04T23:54:46;9.50;99.90
12845;DHT22;6489;48.508;9.206;2022-10-04T23:58:13;9.50;1.00
